createdAt,value
2018-02-22T00:00:49.622Z,13.70
2018-02-22T00:03:17.188Z,16.13
2018-02-22T00:05:44.754Z,13.47
2018-02-22T00:08:12.475Z,14.60
2018-02-22T00:10:40.038Z,13.57
2018-02-22T00:13:07.668Z,14.60
2018-02-22T00:15:35.303Z,14.90
2018-02-22T00:18:02.877Z,14.03
2018-02-22T00:20:30.442Z,13.60
2018-02-22T00:22:58.058Z,13.10
2018-02-22T00:25:25.626Z,13.87
2018-02-22T00:27:53.251Z,13.57
2018-02-22T00:30:20.881Z,12.23
2018-02-22T00:32:48.447Z,12.90
2018-02-22T00:35:16.086Z,11.60
2018-02-22T00:37:43.718Z,12.33
2018-02-22T00:40:11.343Z,13.80
2018-02-22T00:42:38.920Z,13.73
2018-02-22T00:45:06.546Z,15.20
2018-02-22T00:47:34.106Z,13.77
2018-02-22T00:50:01.672Z,15.27
2018-02-22T00:52:29.302Z,15.00
2018-02-22T00:54:56.933Z,13.50
2018-02-22T00:57:24.499Z,14.83
2018-02-22T00:59:52.190Z,15.27
2018-02-22T01:02:19.799Z,13.80
2018-02-22T01:04:47.435Z,15.10
2018-02-22T01:07:15.107Z,15.07
2018-02-22T01:09:42.673Z,14.90
2018-02-22T01:12:10.233Z,14.20
2018-02-22T01:14:37.866Z,14.60
2018-02-22T01:17:05.440Z,15.57
2018-02-22T01:19:33.006Z,15.47
2018-02-22T01:22:00.630Z,14.53
2018-02-22T01:24:28.257Z,13.93
2018-02-22T01:26:55.826Z,15.27
2018-02-22T01:29:23.778Z,15.27
2018-02-22T01:31:51.358Z,14.53
2018-02-22T01:34:18.926Z,15.17
2018-02-22T01:36:46.550Z,15.10
2018-02-22T01:39:14.122Z,15.03
2018-02-22T01:41:41.691Z,14.47
2018-02-22T01:44:09.344Z,14.30
2018-02-22T01:46:36.892Z,13.10
2018-02-22T01:49:04.460Z,14.17
2018-02-22T01:51:32.083Z,13.07
2018-02-22T01:53:59.650Z,12.80
2018-02-22T01:56:27.217Z,13.00
2018-02-22T01:58:54.843Z,12.37
2018-02-22T02:01:22.474Z,12.40
2018-02-22T02:03:50.038Z,12.20
2018-02-22T02:06:17.657Z,11.30
2018-02-22T02:08:45.286Z,12.23
2018-02-22T02:11:12.858Z,13.13
2018-02-22T02:13:40.491Z,12.10
2018-02-22T02:16:08.059Z,12.37
2018-02-22T02:18:35.622Z,11.10
2018-02-22T02:21:03.254Z,12.60
2018-02-22T02:23:30.826Z,11.00
2018-02-22T02:25:58.391Z,12.17
2018-02-22T02:28:26.036Z,11.70
2018-02-22T02:30:53.649Z,12.00
2018-02-22T02:33:21.291Z,10.60
2018-02-22T02:35:48.920Z,11.60
2018-02-22T02:38:16.483Z,12.40
2018-02-22T02:40:44.078Z,12.70
2018-02-22T02:43:11.777Z,11.20
2018-02-22T02:45:39.345Z,12.07
2018-02-22T02:48:06.983Z,14.07
2018-02-22T02:50:34.587Z,12.93
2018-02-22T02:53:02.155Z,11.73
2018-02-22T02:55:29.865Z,11.30
2018-02-22T02:57:57.647Z,12.83
2018-02-22T03:00:25.208Z,11.67
2018-02-22T03:02:52.770Z,9.97
2018-02-22T03:05:20.416Z,11.33
2018-02-22T03:07:48.227Z,11.43
2018-02-22T03:10:16.049Z,11.20
2018-02-22T03:12:43.959Z,10.47
2018-02-22T03:15:11.603Z,10.50
2018-02-22T03:17:39.210Z,9.73
2018-02-22T03:20:06.895Z,10.47
2018-02-22T03:22:34.445Z,9.90
2018-02-22T03:25:02.072Z,10.17
2018-02-22T03:27:29.766Z,10.60
2018-02-22T03:29:57.319Z,10.17
2018-02-22T03:32:25.056Z,10.53
2018-02-22T03:34:52.737Z,19.90
2018-02-22T03:37:20.320Z,10.60
2018-02-22T03:39:47.890Z,11.30
2018-02-22T03:42:15.567Z,9.70
2018-02-22T03:44:43.169Z,8.47
2018-02-22T03:47:10.731Z,9.90
2018-02-22T03:49:38.374Z,10.17
2018-02-22T03:52:05.942Z,8.43
2018-02-22T03:54:33.603Z,8.00
2018-02-22T03:57:01.220Z,8.10
2018-02-22T03:59:28.842Z,8.13
2018-02-22T04:01:56.414Z,6.90
2018-02-22T04:04:24.062Z,7.67
2018-02-22T04:06:51.628Z,7.00
2018-02-22T04:09:19.190Z,7.33
2018-02-22T04:11:46.813Z,7.33
2018-02-22T04:14:14.441Z,7.30
2018-02-22T04:16:42.064Z,8.30
2018-02-22T04:19:09.683Z,9.10
2018-02-22T04:21:37.286Z,7.53
2018-02-22T04:24:04.842Z,7.50
2018-02-22T04:26:32.456Z,7.80
2018-02-22T04:29:00.023Z,10.47
2018-02-22T04:31:27.573Z,11.20
2018-02-22T04:33:55.260Z,8.80
2018-02-22T04:36:22.820Z,12.67
2018-02-22T04:38:50.391Z,10.90
2018-02-22T04:41:18.023Z,8.87
2018-02-22T04:43:45.582Z,9.97
2018-02-22T04:46:14.349Z,9.00
2018-02-22T04:48:42.220Z,10.00
2018-02-22T04:51:09.786Z,9.60
2018-02-22T04:53:37.373Z,11.67
2018-02-22T04:56:05.073Z,11.27
2018-02-22T04:58:33.555Z,11.80
2018-02-22T05:01:01.127Z,12.20
2018-02-22T05:03:28.742Z,11.50
2018-02-22T05:05:56.362Z,12.00
2018-02-22T05:08:23.927Z,12.27
2018-02-22T05:10:51.615Z,19.13
2018-02-22T05:13:19.183Z,12.10
2018-02-22T05:15:46.869Z,13.80
2018-02-22T05:18:14.493Z,12.90
2018-02-22T05:20:42.059Z,20.57
2018-02-22T05:23:09.622Z,12.40
2018-02-22T05:25:37.255Z,17.93
2018-02-22T05:28:04.884Z,12.30
2018-02-22T05:30:32.512Z,11.40
2018-02-22T05:33:00.139Z,13.97
2018-02-22T05:35:27.703Z,14.33
2018-02-22T05:37:55.329Z,15.67
2018-02-22T05:40:22.949Z,23.80
2018-02-22T05:42:50.578Z,12.17
2018-02-22T05:45:18.148Z,13.70
2018-02-22T05:47:45.773Z,13.40
2018-02-22T05:50:13.330Z,13.00
2018-02-22T05:52:40.887Z,12.87
2018-02-22T05:55:08.582Z,12.40
2018-02-22T05:57:36.144Z,12.77
2018-02-22T06:00:03.723Z,13.03
2018-02-22T06:02:31.350Z,16.87
2018-02-22T06:04:58.905Z,14.70
2018-02-22T06:07:26.532Z,14.87
2018-02-22T06:09:54.154Z,17.13
2018-02-22T06:12:21.719Z,16.80
2018-02-22T06:14:49.279Z,15.23
2018-02-22T06:17:16.951Z,13.70
2018-02-22T06:19:44.582Z,12.50
2018-02-22T06:22:12.131Z,12.17
2018-02-22T06:24:39.743Z,14.53
2018-02-22T06:27:07.291Z,16.43
2018-02-22T06:29:34.864Z,15.47
2018-02-22T06:32:02.486Z,14.70
2018-02-22T06:34:30.064Z,15.10
2018-02-22T06:36:57.699Z,14.10
2018-02-22T06:39:25.396Z,16.10
2018-02-22T06:41:52.968Z,14.43
2018-02-22T06:44:20.605Z,15.30
2018-02-22T06:46:48.306Z,15.43
2018-02-22T06:49:15.872Z,12.60
2018-02-22T06:51:43.439Z,10.93
2018-02-22T06:54:11.136Z,11.80
2018-02-22T06:56:38.697Z,9.87
2018-02-22T06:59:06.320Z,10.07
2018-02-22T07:01:33.950Z,10.50
2018-02-22T07:04:01.515Z,15.47
2018-02-22T07:06:29.143Z,11.50
2018-02-22T07:08:56.755Z,11.33
2018-02-22T07:11:24.316Z,11.50
2018-02-22T07:13:51.886Z,10.70
2018-02-22T07:16:19.499Z,11.87
2018-02-22T07:18:47.067Z,10.83
2018-02-22T07:21:14.685Z,9.20
2018-02-22T07:23:42.299Z,8.80
2018-02-22T07:26:09.925Z,11.20
2018-02-22T07:28:37.482Z,10.87
2018-02-22T07:31:05.152Z,9.47
2018-02-22T07:33:32.763Z,10.43
2018-02-22T07:36:00.344Z,10.60
2018-02-22T07:38:28.067Z,9.83
2018-02-22T07:40:55.695Z,10.10
2018-02-22T07:43:23.227Z,9.47
2018-02-22T07:45:50.835Z,9.73
2018-02-22T07:48:18.394Z,9.37
2018-02-22T07:50:46.054Z,8.67
2018-02-22T07:53:13.736Z,10.40
2018-02-22T07:55:41.355Z,9.13
2018-02-22T07:58:08.919Z,10.83
2018-02-22T08:00:36.608Z,11.23
2018-02-22T08:03:04.179Z,11.10
2018-02-22T08:05:31.738Z,11.40
2018-02-22T08:07:59.428Z,10.83
2018-02-22T08:10:27.029Z,10.60
2018-02-22T08:12:54.589Z,10.30
2018-02-22T08:15:22.254Z,9.20
2018-02-22T08:17:49.846Z,7.57
2018-02-22T08:20:17.450Z,10.43
2018-02-22T08:22:45.067Z,7.30
2018-02-22T08:25:12.627Z,8.07
2018-02-22T08:27:40.194Z,8.73
2018-02-22T08:30:07.880Z,10.30
2018-02-22T08:32:35.433Z,8.23
2018-02-22T08:35:03.050Z,8.67
2018-02-22T08:37:30.710Z,11.10
2018-02-22T08:39:58.383Z,11.30
2018-02-22T08:42:26.018Z,10.03
2018-02-22T08:44:53.682Z,10.07
2018-02-22T08:47:21.235Z,8.17
2018-02-22T08:49:48.895Z,8.43
2018-02-22T08:52:16.523Z,8.50
2018-02-22T08:54:44.139Z,8.97
2018-02-22T08:57:11.703Z,9.47
2018-02-22T08:59:39.333Z,8.73
2018-02-22T09:02:06.890Z,8.53
2018-02-22T09:04:34.445Z,8.00
2018-02-22T09:07:02.131Z,7.70
2018-02-22T09:09:29.691Z,8.00
2018-02-22T09:11:57.246Z,7.33
2018-02-22T09:14:24.873Z,8.07
2018-02-22T09:16:52.493Z,7.67
2018-02-22T09:19:20.080Z,7.30
2018-02-22T09:21:47.692Z,7.90
2018-02-22T09:24:15.274Z,7.10
2018-02-22T09:26:42.836Z,7.13
2018-02-22T09:29:10.447Z,8.80
2018-02-22T09:31:38.009Z,9.90
2018-02-22T09:34:05.577Z,6.47
2018-02-22T09:36:33.197Z,8.00
2018-02-22T09:39:00.785Z,10.33
2018-02-22T09:41:28.355Z,12.90
2018-02-22T09:43:55.975Z,11.10
2018-02-22T09:46:23.534Z,9.20
2018-02-22T09:48:51.095Z,7.53
2018-02-22T09:51:18.776Z,6.40
2018-02-22T09:53:46.399Z,6.90
2018-02-22T09:56:13.954Z,6.80
2018-02-22T09:58:41.631Z,6.57
2018-02-22T10:01:09.189Z,5.63
2018-02-22T10:03:36.746Z,7.03
2018-02-22T10:06:04.364Z,6.13
2018-02-22T10:08:31.923Z,5.50
2018-02-22T10:10:59.543Z,7.40
2018-02-22T10:13:27.216Z,8.23
2018-02-22T10:15:54.776Z,8.60
2018-02-22T10:18:22.406Z,15.37
2018-02-22T10:20:50.049Z,12.43
2018-02-22T10:23:17.607Z,8.70
2018-02-22T10:25:45.174Z,8.47
2018-02-22T10:28:12.807Z,21.30
2018-02-22T10:30:40.432Z,11.60
2018-02-22T10:33:08.023Z,5.30
2018-02-22T10:35:35.633Z,9.67
2018-02-22T10:38:03.191Z,9.07
2018-02-22T10:40:30.790Z,16.40
2018-02-22T10:42:58.407Z,5.50
2018-02-22T10:45:25.967Z,7.77
2018-02-22T10:47:53.531Z,14.23
2018-02-22T10:50:21.145Z,8.00
2018-02-22T10:52:48.745Z,6.23
2018-02-22T10:55:16.307Z,11.60
2018-02-22T10:57:43.921Z,5.70
2018-02-22T11:00:11.478Z,5.00
2018-02-22T11:02:45.753Z,5.80
2018-02-22T11:05:13.315Z,5.40
2018-02-22T11:07:40.940Z,7.73
2018-02-22T11:10:08.556Z,4.13
2018-02-22T11:12:36.171Z,4.90
2018-02-22T11:15:03.736Z,4.37
2018-02-22T11:17:31.358Z,4.53
2018-02-22T11:19:58.903Z,4.03
2018-02-22T11:22:26.455Z,4.63
2018-02-22T11:24:54.068Z,4.13
2018-02-22T11:27:21.652Z,3.67
2018-02-22T11:29:49.277Z,4.33
2018-02-22T11:32:16.895Z,3.73
2018-02-22T11:34:44.454Z,3.73
2018-02-22T11:37:12.001Z,3.40
2018-02-22T11:39:39.684Z,3.23
2018-02-22T11:42:07.238Z,4.50
2018-02-22T11:44:34.851Z,4.83
2018-02-22T11:47:02.471Z,3.40
2018-02-22T11:49:30.088Z,3.20
2018-02-22T11:51:57.703Z,3.47
2018-02-22T11:54:25.398Z,3.60
2018-02-22T11:56:52.938Z,3.07
2018-02-22T11:59:20.494Z,3.80
2018-02-22T12:01:48.183Z,2.43
2018-02-22T12:04:15.791Z,3.20
2018-02-22T12:06:43.357Z,2.90
2018-02-22T12:09:11.031Z,2.70
2018-02-22T12:11:38.571Z,3.50
2018-02-22T12:14:06.194Z,2.73
2018-02-22T12:16:33.821Z,2.33
2018-02-22T12:19:01.434Z,3.30
2018-02-22T12:21:29.059Z,2.13
2018-02-22T12:23:56.735Z,2.40
2018-02-22T12:26:24.359Z,2.13
2018-02-22T12:28:51.979Z,3.00
2018-02-22T12:31:19.603Z,3.90
2018-02-22T12:33:47.159Z,4.43
2018-02-22T12:36:14.709Z,3.60
2018-02-22T12:38:42.326Z,3.90
2018-02-22T12:41:09.943Z,4.40
2018-02-22T12:43:37.539Z,3.33
2018-02-22T12:46:05.158Z,3.50
2018-02-22T12:48:32.775Z,3.23
2018-02-22T12:51:00.348Z,3.20
2018-02-22T12:53:27.971Z,2.90
2018-02-22T12:55:55.556Z,2.90
2018-02-22T12:58:23.117Z,2.57
2018-02-22T13:00:50.806Z,2.53
2018-02-22T13:03:18.362Z,2.70
2018-02-22T13:05:45.974Z,2.90
2018-02-22T13:08:13.599Z,3.57
2018-02-22T13:10:41.164Z,2.90
2018-02-22T13:13:08.724Z,3.43
2018-02-22T13:15:37.345Z,3.17
2018-02-22T13:18:04.907Z,3.57
2018-02-22T13:20:32.537Z,4.13
2018-02-22T13:23:00.297Z,4.30
2018-02-22T13:25:27.826Z,5.83
2018-02-22T13:27:55.404Z,2.20
2018-02-22T13:30:23.034Z,2.70
2018-02-22T13:33:02.367Z,2.50
2018-02-22T13:35:30.075Z,10.47
2018-02-22T13:41:12.528Z,2.13
2018-02-22T13:43:40.093Z,2.63
2018-02-22T13:46:07.656Z,2.70
2018-02-22T13:48:47.178Z,3.83
2018-02-22T13:51:14.819Z,3.60
2018-02-22T13:53:42.379Z,2.40
2018-02-22T13:59:05.237Z,3.73
2018-02-22T14:01:44.824Z,3.77
2018-02-22T14:04:12.375Z,3.47
2018-02-22T14:06:39.992Z,3.53
2018-02-22T14:09:07.607Z,3.50
2018-02-22T14:11:35.167Z,3.20
2018-02-22T14:14:02.766Z,3.57
2018-02-22T14:16:30.387Z,2.80
2018-02-22T14:18:58.000Z,3.27
2018-02-22T14:21:25.564Z,3.10
2018-02-22T14:23:53.242Z,3.90
2018-02-22T14:26:20.800Z,2.30
2018-02-22T14:28:48.339Z,3.10
2018-02-22T14:31:16.019Z,3.50
2018-02-22T14:33:43.680Z,2.60
2018-02-22T14:36:11.309Z,3.20
2018-02-22T14:38:38.987Z,3.47
2018-02-22T14:41:06.547Z,3.20
2018-02-22T14:43:34.162Z,3.87
2018-02-22T14:46:01.771Z,2.97
2018-02-22T14:48:29.326Z,3.93
2018-02-22T14:50:56.951Z,3.10
2018-02-22T14:53:24.619Z,3.40
2018-02-22T14:55:52.175Z,5.53
2018-02-22T14:58:19.776Z,3.10
2018-02-22T15:00:52.903Z,3.60
2018-02-22T15:03:20.528Z,5.90
2018-02-22T15:05:48.103Z,4.57
2018-02-22T15:08:15.708Z,3.60
2018-02-22T15:10:43.264Z,3.20
2018-02-22T15:13:10.884Z,4.83
2018-02-22T15:15:38.554Z,5.63
2018-02-22T15:18:06.236Z,4.90
2018-02-22T15:20:33.768Z,3.93
2018-02-22T15:23:01.390Z,3.07
2018-02-22T15:25:28.962Z,3.80
2018-02-22T15:27:56.610Z,4.17
2018-02-22T15:30:24.231Z,3.73
2018-02-22T15:32:51.850Z,3.60
2018-02-22T15:35:19.409Z,3.77
2018-02-22T15:37:47.023Z,6.60
2018-02-22T15:40:14.607Z,9.60
2018-02-22T15:42:42.233Z,4.80
2018-02-22T15:45:09.851Z,3.70
2018-02-22T15:47:37.460Z,5.33
2018-02-22T15:50:05.035Z,10.30
2018-02-22T15:52:32.664Z,4.20
2018-02-22T15:55:00.234Z,6.27
2018-02-22T15:57:27.795Z,3.90
2018-02-22T15:59:55.428Z,9.37
2018-02-22T16:02:23.048Z,4.10
2018-02-22T16:04:50.615Z,8.20
2018-02-22T16:07:18.280Z,9.17
2018-02-22T16:09:45.913Z,10.70
2018-02-22T16:12:13.535Z,11.47
2018-02-22T16:14:41.223Z,11.13
2018-02-22T16:17:08.799Z,6.43
2018-02-22T16:19:36.366Z,6.60
2018-02-22T16:22:04.042Z,5.40
2018-02-22T16:24:31.677Z,17.97
2018-02-22T16:26:59.243Z,14.83
2018-02-22T16:29:26.863Z,9.07
2018-02-22T16:31:54.463Z,7.10
2018-02-22T16:34:22.031Z,18.17
2018-02-22T16:36:49.656Z,19.13
2018-02-22T16:39:17.271Z,11.57
2018-02-22T16:41:44.831Z,5.30
2018-02-22T16:44:12.441Z,4.40
2018-02-22T16:46:40.071Z,7.97
2018-02-22T16:49:07.655Z,4.53
2018-02-22T16:51:35.272Z,9.43
2018-02-22T16:54:02.875Z,5.80
2018-02-22T16:56:30.438Z,5.47
2018-02-22T16:58:58.120Z,5.97
2018-02-22T17:01:25.674Z,6.00
2018-02-22T17:03:53.230Z,6.10
2018-02-22T17:06:20.851Z,5.53
2018-02-22T17:08:48.492Z,11.07
2018-02-22T17:11:16.055Z,5.10
2018-02-22T17:13:43.683Z,4.13
2018-02-22T17:16:11.253Z,3.47
2018-02-22T17:18:38.819Z,5.60
2018-02-22T17:21:06.484Z,5.13
2018-02-22T17:23:34.087Z,3.80
2018-02-22T17:26:07.134Z,6.70
2018-02-22T17:28:40.292Z,4.57
2018-02-22T17:31:13.599Z,4.80
2018-02-22T17:33:41.179Z,7.00
2018-02-22T17:36:11.194Z,4.50
2018-02-22T17:38:44.497Z,7.43
2018-02-22T17:41:12.157Z,6.07
2018-02-22T17:43:39.762Z,4.87
2018-02-22T17:46:07.507Z,5.00
2018-02-22T17:48:35.154Z,4.87
2018-02-22T17:51:02.794Z,5.60
2018-02-22T17:53:30.428Z,7.53
2018-02-22T17:55:57.993Z,4.13
2018-02-22T17:58:25.614Z,5.83
2018-02-22T18:00:53.810Z,5.50
2018-02-22T18:03:21.420Z,4.00
2018-02-22T18:05:49.019Z,4.57
2018-02-22T18:08:16.687Z,4.97
2018-02-22T18:10:44.308Z,4.50
2018-02-22T18:13:11.946Z,4.83
2018-02-22T18:15:39.682Z,3.80
2018-02-22T18:18:07.339Z,5.17
2018-02-22T18:20:35.006Z,4.10
2018-02-22T18:23:02.724Z,3.83
2018-02-22T18:25:30.387Z,5.40
2018-02-22T18:27:58.051Z,5.23
2018-02-22T18:30:25.734Z,4.63
2018-02-22T18:32:53.417Z,8.50
2018-02-22T18:35:20.990Z,4.23
2018-02-22T18:37:54.151Z,4.10
2018-02-22T18:40:27.347Z,3.70
2018-02-22T18:42:54.901Z,5.10
2018-02-22T18:45:22.605Z,4.57
2018-02-22T18:47:50.197Z,4.83
2018-02-22T18:50:17.762Z,4.40
2018-02-22T18:52:45.377Z,4.80
2018-02-22T18:55:12.941Z,4.00
2018-02-22T18:57:40.517Z,4.67
2018-02-22T19:00:08.207Z,3.70
2018-02-22T19:02:35.776Z,4.70
2018-02-22T19:05:03.350Z,4.90
2018-02-22T19:07:31.030Z,4.30
2018-02-22T19:09:58.657Z,4.10
2018-02-22T19:12:27.385Z,4.80
2018-02-22T19:14:55.010Z,5.07
2018-02-22T19:17:22.578Z,4.37
2018-02-22T19:19:50.138Z,5.43
2018-02-22T19:22:17.777Z,4.87
2018-02-22T19:24:45.346Z,4.77
2018-02-22T19:27:12.905Z,4.60
2018-02-22T19:29:40.583Z,5.20
2018-02-22T19:32:08.152Z,5.00
2018-02-22T19:34:35.716Z,5.20
2018-02-22T19:37:03.443Z,4.80
2018-02-22T19:39:31.112Z,5.33
2018-02-22T19:41:58.679Z,4.47
2018-02-22T19:44:26.315Z,4.77
2018-02-22T19:46:53.935Z,4.00
2018-02-22T19:49:21.512Z,5.00
2018-02-22T19:51:49.107Z,4.90
2018-02-22T19:54:16.659Z,5.30
2018-02-22T19:56:44.271Z,5.73
2018-02-22T19:59:11.897Z,6.57
2018-02-22T20:01:39.522Z,5.80
2018-02-22T20:04:07.086Z,5.67
2018-02-22T20:06:34.795Z,5.50
2018-02-22T20:09:02.376Z,5.60
2018-02-22T20:11:29.952Z,4.10
2018-02-22T20:13:57.594Z,4.53
2018-02-22T20:16:25.210Z,4.30
2018-02-22T20:18:52.815Z,6.73
2018-02-22T20:21:20.559Z,8.23
2018-02-22T20:23:48.307Z,6.20
2018-02-22T20:26:15.928Z,4.80
2018-02-22T20:28:43.543Z,5.83
2018-02-22T20:31:11.178Z,5.20
2018-02-22T20:33:38.758Z,11.03
2018-02-22T20:36:06.389Z,13.53
2018-02-22T20:38:34.002Z,6.20
2018-02-22T20:41:01.568Z,5.20
2018-02-22T20:43:29.199Z,5.43
2018-02-22T20:45:56.815Z,6.03
2018-02-22T20:48:24.483Z,6.53
2018-02-22T20:50:52.538Z,6.17
2018-02-22T20:53:21.055Z,6.00
2018-02-22T20:55:50.048Z,9.50
2018-02-22T20:58:17.702Z,8.37
2018-02-22T21:00:45.304Z,7.20
2018-02-22T21:03:12.911Z,6.30
2018-02-22T21:05:40.668Z,8.00
2018-02-22T21:08:08.237Z,7.07
2018-02-22T21:10:35.815Z,6.33
2018-02-22T21:13:03.447Z,6.17
2018-02-22T21:15:31.009Z,6.30
2018-02-22T21:17:58.574Z,6.63
2018-02-22T21:20:26.198Z,5.40
2018-02-22T21:22:53.831Z,6.20
2018-02-22T21:25:21.399Z,6.03
2018-02-22T21:27:49.014Z,5.50
2018-02-22T21:30:16.655Z,6.37
2018-02-22T21:32:44.277Z,5.20
2018-02-22T21:35:11.968Z,6.40
2018-02-22T21:37:39.833Z,6.20
2018-02-22T21:40:07.417Z,6.80
2018-02-22T21:42:35.103Z,5.20
2018-02-22T21:45:02.681Z,6.30
2018-02-22T21:47:30.245Z,5.53
2018-02-22T21:49:57.870Z,5.67
2018-02-22T21:52:25.450Z,5.40
2018-02-22T21:54:53.079Z,5.27
2018-02-22T21:57:20.758Z,6.27
2018-02-22T21:59:48.321Z,7.13
2018-02-22T22:02:15.888Z,6.27
2018-02-22T22:04:43.496Z,6.47
2018-02-22T22:07:11.056Z,6.13
2018-02-22T22:09:38.633Z,6.70
2018-02-22T22:12:06.253Z,6.83
2018-02-22T22:14:33.817Z,6.70
2018-02-22T22:17:01.380Z,6.40
2018-02-22T22:19:29.060Z,6.70
2018-02-22T22:21:56.684Z,6.70
2018-02-22T22:24:24.239Z,7.40
2018-02-22T22:26:51.927Z,5.97
2018-02-22T22:29:19.492Z,6.63
2018-02-22T22:31:47.059Z,6.83
2018-02-22T22:34:14.743Z,7.60
2018-02-22T22:36:42.311Z,6.37
2018-02-22T22:39:09.898Z,7.03
2018-02-22T22:41:37.588Z,7.60
2018-02-22T22:44:05.261Z,7.17
2018-02-22T22:46:32.900Z,7.53
2018-02-22T22:49:00.595Z,7.60
2018-02-22T22:51:28.168Z,7.77
2018-02-22T22:53:55.734Z,7.87
2018-02-22T22:56:23.358Z,7.47
2018-02-22T22:58:50.925Z,6.30
2018-02-22T23:01:18.491Z,8.63
2018-02-22T23:03:46.128Z,7.70
2018-02-22T23:06:13.710Z,7.93
2018-02-22T23:08:41.278Z,9.60
2018-02-22T23:11:08.902Z,8.40
2018-02-22T23:13:36.478Z,8.67
2018-02-22T23:16:04.054Z,9.50
2018-02-22T23:18:31.682Z,8.40
2018-02-22T23:20:59.322Z,8.63
2018-02-22T23:23:26.890Z,8.70
2018-02-22T23:25:54.523Z,8.70
2018-02-22T23:28:22.151Z,8.80
2018-02-22T23:30:49.723Z,8.80
2018-02-22T23:33:17.451Z,8.93
2018-02-22T23:35:45.000Z,7.90
2018-02-22T23:38:12.604Z,8.70
2018-02-22T23:40:42.107Z,9.67
2018-02-22T23:43:09.721Z,9.27
2018-02-22T23:45:37.294Z,9.10
2018-02-22T23:48:05.034Z,9.53
2018-02-22T23:50:32.610Z,10.63
2018-02-22T23:53:00.218Z,10.60
2018-02-22T23:55:27.944Z,8.30
2018-02-22T23:57:55.510Z,9.40
